sensor_id;sensor_type;location;lat;lon;timestamp;temperature;humidity
21171;DHT22;10743;52.160;20.910;2023-08-06T00:02:41;34.80;45.60
21171;DHT22;10743;52.160;20.910;2023-08-06T00:05:21;34.80;45.70
21171;DHT22;10743;52.160;20.910;2023-08-06T00:08:08;34.80;45.70
21171;DHT22;10743;52.160;20.910;2023-08-06T00:10:48;34.80;45.70
21171;DHT22;10743;52.160;20.910;2023-08-06T00:13:35;34.80;45.70
21171;DHT22;10743;52.160;20.910;2023-08-06T00:16:15;34.80;45.60
21171;DHT22;10743;52.160;20.910;2023-08-06T00:19:09;34.80;45.60
21171;DHT22;10743;52.160;20.910;2023-08-06T00:21:49;34.80;45.60
21171;DHT22;10743;52.160;20.910;2023-08-06T00:24:36;34.80;45.70
21171;DHT22;10743;52.160;20.910;2023-08-06T00:27:16;34.80;45.60
21171;DHT22;10743;52.160;20.910;2023-08-06T00:30:10;34.80;45.60
21171;DHT22;10743;52.160;20.910;2023-08-06T00:32:51;34.70;45.60
21171;DHT22;10743;52.160;20.910;2023-08-06T00:35:38;34.70;45.70
21171;DHT22;10743;52.160;20.910;2023-08-06T00:38:18;34.60;45.60
21171;DHT22;10743;52.160;20.910;2023-08-06T00:41:05;34.60;45.80
21171;DHT22;10743;52.160;20.910;2023-08-06T00:43:52;34.60;45.70
21171;DHT22;10743;52.160;20.910;2023-08-06T00:46:46;34.60;45.90
21171;DHT22;10743;52.160;20.910;2023-08-06T00:49:26;34.50;45.80
21171;DHT22;10743;52.160;20.910;2023-08-06T00:52:13;34.50;45.90
21171;DHT22;10743;52.160;20.910;2023-08-06T00:54:54;34.50;45.70
21171;DHT22;10743;52.160;20.910;2023-08-06T00:57:41;34.50;45.80
21171;DHT22;10743;52.160;20.910;2023-08-06T01:00:22;34.50;45.70
21171;DHT22;10743;52.160;20.910;2023-08-06T01:03:11;34.50;45.70
21171;DHT22;10743;52.160;20.910;2023-08-06T01:05:51;34.50;45.70
21171;DHT22;10743;52.160;20.910;2023-08-06T01:08:54;34.50;45.60
21171;DHT22;10743;52.160;20.910;2023-08-06T01:11:45;34.50;45.70
21171;DHT22;10743;52.160;20.910;2023-08-06T01:14:52;34.50;45.80
21171;DHT22;10743;52.160;20.910;2023-08-06T01:17:31;34.40;45.70
21171;DHT22;10743;52.160;20.910;2023-08-06T01:20:30;34.50;45.70
21171;DHT22;10743;52.160;20.910;2023-08-06T01:23:10;34.40;45.80
21171;DHT22;10743;52.160;20.910;2023-08-06T01:32:09;34.40;45.90
21171;DHT22;10743;52.160;20.910;2023-08-06T01:34:45;34.40;46.00
21171;DHT22;10743;52.160;20.910;2023-08-06T01:37:40;34.40;46.00
21171;DHT22;10743;52.160;20.910;2023-08-06T01:40:14;34.30;46.10
21171;DHT22;10743;52.160;20.910;2023-08-06T01:43:08;34.30;46.20
21171;DHT22;10743;52.160;20.910;2023-08-06T01:46:02;34.30;46.30
21171;DHT22;10743;52.160;20.910;2023-08-06T01:48:42;34.20;46.40
21171;DHT22;10743;52.160;20.910;2023-08-06T01:51:29;34.20;46.40
21171;DHT22;10743;52.160;20.910;2023-08-06T01:54:09;34.20;46.30
21171;DHT22;10743;52.160;20.910;2023-08-06T01:56:56;34.20;46.40
21171;DHT22;10743;52.160;20.910;2023-08-06T01:59:38;34.10;46.30
21171;DHT22;10743;52.160;20.910;2023-08-06T02:02:32;34.10;46.30
21171;DHT22;10743;52.160;20.910;2023-08-06T02:05:07;34.10;46.40
21171;DHT22;10743;52.160;20.910;2023-08-06T02:08:01;34.10;46.30
21171;DHT22;10743;52.160;20.910;2023-08-06T02:10:34;34.20;46.50
21171;DHT22;10743;52.160;20.910;2023-08-06T02:13:29;34.20;46.60
21171;DHT22;10743;52.160;20.910;2023-08-06T02:16:09;34.20;46.60
21171;DHT22;10743;52.160;20.910;2023-08-06T02:18:56;34.20;46.60
21171;DHT22;10743;52.160;20.910;2023-08-06T02:21:36;34.20;46.70
21171;DHT22;10743;52.160;20.910;2023-08-06T02:24:23;34.10;46.70
21171;DHT22;10743;52.160;20.910;2023-08-06T02:27:03;34.10;46.80
21171;DHT22;10743;52.160;20.910;2023-08-06T02:29:50;34.10;46.70
21171;DHT22;10743;52.160;20.910;2023-08-06T02:32:31;34.10;46.80
21171;DHT22;10743;52.160;20.910;2023-08-06T02:35:18;34.10;46.80
21171;DHT22;10743;52.160;20.910;2023-08-06T02:37:58;34.20;46.90
21171;DHT22;10743;52.160;20.910;2023-08-06T02:40:46;34.20;46.90
21171;DHT22;10743;52.160;20.910;2023-08-06T02:43:33;34.20;46.80
21171;DHT22;10743;52.160;20.910;2023-08-06T02:46:28;34.20;46.80
21171;DHT22;10743;52.160;20.910;2023-08-06T02:49:08;34.20;46.80
21171;DHT22;10743;52.160;20.910;2023-08-06T02:51:55;34.20;46.80
21171;DHT22;10743;52.160;20.910;2023-08-06T02:54:35;34.20;47.60
21171;DHT22;10743;52.160;20.910;2023-08-06T02:57:22;34.20;46.70
21171;DHT22;10743;52.160;20.910;2023-08-06T03:00:02;34.20;46.90
21171;DHT22;10743;52.160;20.910;2023-08-06T03:02:58;34.20;46.80
21171;DHT22;10743;52.160;20.910;2023-08-06T03:05:52;34.30;46.90
21171;DHT22;10743;52.160;20.910;2023-08-06T03:08:47;34.30;46.80
21171;DHT22;10743;52.160;20.910;2023-08-06T03:11:21;34.30;46.90
21171;DHT22;10743;52.160;20.910;2023-08-06T03:14:06;34.30;46.70
21171;DHT22;10743;52.160;20.910;2023-08-06T03:17:00;34.30;46.80
21171;DHT22;10743;52.160;20.910;2023-08-06T03:19:41;34.30;46.90
21171;DHT22;10743;52.160;20.910;2023-08-06T03:22:29;34.20;46.90
21171;DHT22;10743;52.160;20.910;2023-08-06T03:25:10;34.30;46.90
21171;DHT22;10743;52.160;20.910;2023-08-06T03:28:05;34.30;47.00
21171;DHT22;10743;52.160;20.910;2023-08-06T03:30:39;34.30;46.90
21171;DHT22;10743;52.160;20.910;2023-08-06T03:33:34;34.30;47.00
21171;DHT22;10743;52.160;20.910;2023-08-06T03:36:18;34.30;47.00
21171;DHT22;10743;52.160;20.910;2023-08-06T03:39:12;34.30;47.00
21171;DHT22;10743;52.160;20.910;2023-08-06T03:41:52;34.20;47.00
21171;DHT22;10743;52.160;20.910;2023-08-06T03:44:39;34.30;47.10
21171;DHT22;10743;52.160;20.910;2023-08-06T03:47:34;34.20;47.20
21171;DHT22;10743;52.160;20.910;2023-08-06T03:50:15;34.30;47.30
21171;DHT22;10743;52.160;20.910;2023-08-06T03:53:02;34.30;47.30
21171;DHT22;10743;52.160;20.910;2023-08-06T03:55:42;34.30;47.40
21171;DHT22;10743;52.160;20.910;2023-08-06T03:58:29;34.30;47.40
21171;DHT22;10743;52.160;20.910;2023-08-06T04:01:09;34.20;47.40
21171;DHT22;10743;52.160;20.910;2023-08-06T04:03:58;34.20;48.10
21171;DHT22;10743;52.160;20.910;2023-08-06T04:06:38;34.20;47.50
21171;DHT22;10743;52.160;20.910;2023-08-06T04:09:28;34.30;47.60
21171;DHT22;10743;52.160;20.910;2023-08-06T04:12:09;34.30;47.50
21171;DHT22;10743;52.160;20.910;2023-08-06T04:14:58;34.30;47.60
21171;DHT22;10743;52.160;20.910;2023-08-06T04:17:38;34.30;47.50
21171;DHT22;10743;52.160;20.910;2023-08-06T04:20:32;34.40;47.50
21171;DHT22;10743;52.160;20.910;2023-08-06T04:23:13;34.30;47.50
21171;DHT22;10743;52.160;20.910;2023-08-06T04:26:05;34.40;47.50
21171;DHT22;10743;52.160;20.910;2023-08-06T04:28:45;34.40;48.20
21171;DHT22;10743;52.160;20.910;2023-08-06T04:31:32;34.40;47.60
21171;DHT22;10743;52.160;20.910;2023-08-06T04:34:05;34.40;47.50
21171;DHT22;10743;52.160;20.910;2023-08-06T04:37:00;34.40;47.40
21171;DHT22;10743;52.160;20.910;2023-08-06T04:39:40;34.40;47.50
21171;DHT22;10743;52.160;20.910;2023-08-06T04:42:27;34.40;47.50
21171;DHT22;10743;52.160;20.910;2023-08-06T04:45:21;34.50;47.70
21171;DHT22;10743;52.160;20.910;2023-08-06T04:47:57;34.40;47.60
21171;DHT22;10743;52.160;20.910;2023-08-06T04:50:51;34.50;47.70
21171;DHT22;10743;52.160;20.910;2023-08-06T04:53:31;34.50;47.70
21171;DHT22;10743;52.160;20.910;2023-08-06T04:56:18;34.50;47.70
21171;DHT22;10743;52.160;20.910;2023-08-06T04:58:59;34.50;47.60
21171;DHT22;10743;52.160;20.910;2023-08-06T05:01:46;34.50;47.60
21171;DHT22;10743;52.160;20.910;2023-08-06T05:04:27;34.60;47.60
21171;DHT22;10743;52.160;20.910;2023-08-06T05:07:14;34.60;47.50
21171;DHT22;10743;52.160;20.910;2023-08-06T05:09:54;34.70;48.20
21171;DHT22;10743;52.160;20.910;2023-08-06T05:12:41;34.70;47.50
21171;DHT22;10743;52.160;20.910;2023-08-06T05:15:21;34.70;47.50
21171;DHT22;10743;52.160;20.910;2023-08-06T05:18:09;34.70;47.40
21171;DHT22;10743;52.160;20.910;2023-08-06T05:20:50;34.80;47.40
21171;DHT22;10743;52.160;20.910;2023-08-06T05:23:36;34.80;47.30
21171;DHT22;10743;52.160;20.910;2023-08-06T05:26:16;34.80;47.30
21171;DHT22;10743;52.160;20.910;2023-08-06T05:29:03;34.90;47.40
21171;DHT22;10743;52.160;20.910;2023-08-06T05:31:43;34.90;47.40
21171;DHT22;10743;52.160;20.910;2023-08-06T05:34:37;34.90;47.30
21171;DHT22;10743;52.160;20.910;2023-08-06T05:37:17;35.00;47.10
21171;DHT22;10743;52.160;20.910;2023-08-06T05:40:05;35.00;47.10
21171;DHT22;10743;52.160;20.910;2023-08-06T05:42:55;35.00;47.10
21171;DHT22;10743;52.160;20.910;2023-08-06T05:45:50;35.00;47.00
21171;DHT22;10743;52.160;20.910;2023-08-06T05:48:23;35.10;46.70
21171;DHT22;10743;52.160;20.910;2023-08-06T05:51:19;35.10;46.60
21171;DHT22;10743;52.160;20.910;2023-08-06T05:53:58;35.20;46.50
21171;DHT22;10743;52.160;20.910;2023-08-06T05:56:45;35.20;46.40
21171;DHT22;10743;52.160;20.910;2023-08-06T05:59:25;35.30;46.40
21171;DHT22;10743;52.160;20.910;2023-08-06T06:02:12;35.30;46.50
21171;DHT22;10743;52.160;20.910;2023-08-06T06:04:52;35.40;46.40
21171;DHT22;10743;52.160;20.910;2023-08-06T06:07:39;35.40;46.20
21171;DHT22;10743;52.160;20.910;2023-08-06T06:10:19;35.50;46.40
21171;DHT22;10743;52.160;20.910;2023-08-06T06:13:06;35.50;46.10
21171;DHT22;10743;52.160;20.910;2023-08-06T06:16:01;35.50;46.00
21171;DHT22;10743;52.160;20.910;2023-08-06T06:18:55;35.60;46.00
21171;DHT22;10743;52.160;20.910;2023-08-06T06:21:36;35.70;45.70
21171;DHT22;10743;52.160;20.910;2023-08-06T06:24:30;35.70;45.50
21171;DHT22;10743;52.160;20.910;2023-08-06T06:27:10;35.70;45.40
21171;DHT22;10743;52.160;20.910;2023-08-06T06:29:57;35.80;45.60
21171;DHT22;10743;52.160;20.910;2023-08-06T06:32:37;35.80;45.60
21171;DHT22;10743;52.160;20.910;2023-08-06T06:35:24;35.80;45.60
21171;DHT22;10743;52.160;20.910;2023-08-06T06:38:04;35.80;45.90
21171;DHT22;10743;52.160;20.910;2023-08-06T06:40:55;35.90;45.50
21171;DHT22;10743;52.160;20.910;2023-08-06T06:43:44;35.90;45.40
21171;DHT22;10743;52.160;20.910;2023-08-06T06:46:39;35.90;45.60
21171;DHT22;10743;52.160;20.910;2023-08-06T06:49:19;36.00;45.40
21171;DHT22;10743;52.160;20.910;2023-08-06T06:52:06;36.00;45.60
21171;DHT22;10743;52.160;20.910;2023-08-06T06:54:47;36.10;45.20
21171;DHT22;10743;52.160;20.910;2023-08-06T06:57:34;36.10;45.40
21171;DHT22;10743;52.160;20.910;2023-08-06T07:00:14;36.20;45.10
21171;DHT22;10743;52.160;20.910;2023-08-06T07:03:01;36.30;44.90
21171;DHT22;10743;52.160;20.910;2023-08-06T07:05:42;36.30;44.60
21171;DHT22;10743;52.160;20.910;2023-08-06T07:08:30;36.30;44.60
21171;DHT22;10743;52.160;20.910;2023-08-06T07:11:10;36.40;44.90
21171;DHT22;10743;52.160;20.910;2023-08-06T07:13:58;36.40;45.20
21171;DHT22;10743;52.160;20.910;2023-08-06T07:16:38;36.50;44.80
21171;DHT22;10743;52.160;20.910;2023-08-06T07:19:32;36.60;45.00
21171;DHT22;10743;52.160;20.910;2023-08-06T07:22:12;36.60;44.40
21171;DHT22;10743;52.160;20.910;2023-08-06T07:24:59;36.70;44.70
21171;DHT22;10743;52.160;20.910;2023-08-06T07:27:40;36.70;44.60
21171;DHT22;10743;52.160;20.910;2023-08-06T07:30:26;36.80;44.30
21171;DHT22;10743;52.160;20.910;2023-08-06T07:33:07;36.80;44.60
21171;DHT22;10743;52.160;20.910;2023-08-06T07:35:53;36.90;43.90
21171;DHT22;10743;52.160;20.910;2023-08-06T07:38:34;36.90;44.10
21171;DHT22;10743;52.160;20.910;2023-08-06T07:41:27;37.10;44.00
21171;DHT22;10743;52.160;20.910;2023-08-06T07:44:14;37.10;43.30
21171;DHT22;10743;52.160;20.910;2023-08-06T07:47:08;37.20;44.50
21171;DHT22;10743;52.160;20.910;2023-08-06T07:49:49;37.30;43.30
21171;DHT22;10743;52.160;20.910;2023-08-06T07:52:35;37.30;43.40
21171;DHT22;10743;52.160;20.910;2023-08-06T07:55:16;37.30;44.20
21171;DHT22;10743;52.160;20.910;2023-08-06T07:58:09;37.40;43.70
21171;DHT22;10743;52.160;20.910;2023-08-06T08:00:50;37.50;43.60
21171;DHT22;10743;52.160;20.910;2023-08-06T08:03:36;37.50;43.30
21171;DHT22;10743;52.160;20.910;2023-08-06T08:06:17;37.60;42.80
21171;DHT22;10743;52.160;20.910;2023-08-06T08:09:10;37.60;43.30
21171;DHT22;10743;52.160;20.910;2023-08-06T08:11:51;37.70;43.40
21171;DHT22;10743;52.160;20.910;2023-08-06T08:14:40;37.80;43.70
21171;DHT22;10743;52.160;20.910;2023-08-06T08:17:21;37.90;43.20
21171;DHT22;10743;52.160;20.910;2023-08-06T08:20:08;38.00;42.70
21171;DHT22;10743;52.160;20.910;2023-08-06T08:22:49;38.10;42.90
21171;DHT22;10743;52.160;20.910;2023-08-06T08:25:35;38.20;42.50
21171;DHT22;10743;52.160;20.910;2023-08-06T08:28:16;38.30;42.50
21171;DHT22;10743;52.160;20.910;2023-08-06T08:31:02;38.40;42.40
21171;DHT22;10743;52.160;20.910;2023-08-06T08:33:43;38.50;42.80
21171;DHT22;10743;52.160;20.910;2023-08-06T08:36:33;38.50;42.50
21171;DHT22;10743;52.160;20.910;2023-08-06T08:39:14;38.60;42.80
21171;DHT22;10743;52.160;20.910;2023-08-06T08:42:01;38.70;42.30
21171;DHT22;10743;52.160;20.910;2023-08-06T08:44:49;38.70;42.20
21171;DHT22;10743;52.160;20.910;2023-08-06T08:47:29;38.70;42.40
21171;DHT22;10743;52.160;20.910;2023-08-06T08:50:17;38.80;42.40
21171;DHT22;10743;52.160;20.910;2023-08-06T08:52:59;38.90;42.20
21171;DHT22;10743;52.160;20.910;2023-08-06T08:55:54;38.90;42.50
21171;DHT22;10743;52.160;20.910;2023-08-06T08:58:35;39.00;42.30
21171;DHT22;10743;52.160;20.910;2023-08-06T09:01:22;39.10;42.70
21171;DHT22;10743;52.160;20.910;2023-08-06T09:04:16;39.30;43.10
21171;DHT22;10743;52.160;20.910;2023-08-06T09:06:58;39.30;41.80
21171;DHT22;10743;52.160;20.910;2023-08-06T09:09:49;39.40;41.40
21171;DHT22;10743;52.160;20.910;2023-08-06T09:12:30;39.60;40.50
21171;DHT22;10743;52.160;20.910;2023-08-06T09:15:25;39.70;41.00
21171;DHT22;10743;52.160;20.910;2023-08-06T09:17:59;39.80;40.70
21171;DHT22;10743;52.160;20.910;2023-08-06T09:20:53;39.80;40.40
21171;DHT22;10743;52.160;20.910;2023-08-06T09:23:30;40.00;40.80
21171;DHT22;10743;52.160;20.910;2023-08-06T09:26:32;39.90;40.80
21171;DHT22;10743;52.160;20.910;2023-08-06T09:29:13;40.00;41.20
21171;DHT22;10743;52.160;20.910;2023-08-06T09:32:02;40.10;40.20
21171;DHT22;10743;52.160;20.910;2023-08-06T09:34:42;40.10;40.30
21171;DHT22;10743;52.160;20.910;2023-08-06T09:37:36;40.20;39.60
21171;DHT22;10743;52.160;20.910;2023-08-06T09:40:24;40.30;40.10
21171;DHT22;10743;52.160;20.910;2023-08-06T09:43:13;40.40;39.90
21171;DHT22;10743;52.160;20.910;2023-08-06T09:46:16;40.40;39.20
21171;DHT22;10743;52.160;20.910;2023-08-06T09:48:56;40.40;39.60
21171;DHT22;10743;52.160;20.910;2023-08-06T09:51:43;40.40;38.90
21171;DHT22;10743;52.160;20.910;2023-08-06T09:54:26;40.40;38.80
21171;DHT22;10743;52.160;20.910;2023-08-06T09:57:14;40.40;39.60
21171;DHT22;10743;52.160;20.910;2023-08-06T09:59:49;40.50;38.80
21171;DHT22;10743;52.160;20.910;2023-08-06T10:02:46;40.50;40.20
21171;DHT22;10743;52.160;20.910;2023-08-06T10:05:31;40.60;38.00
21171;DHT22;10743;52.160;20.910;2023-08-06T10:08:20;40.60;38.20
21171;DHT22;10743;52.160;20.910;2023-08-06T10:11:02;40.70;38.00
21171;DHT22;10743;52.160;20.910;2023-08-06T10:14:01;40.70;37.90
21171;DHT22;10743;52.160;20.910;2023-08-06T10:16:45;40.80;37.30
21171;DHT22;10743;52.160;20.910;2023-08-06T10:19:37;40.80;37.00
21171;DHT22;10743;52.160;20.910;2023-08-06T10:22:18;40.90;37.50
21171;DHT22;10743;52.160;20.910;2023-08-06T10:25:10;40.90;37.10
21171;DHT22;10743;52.160;20.910;2023-08-06T10:30:47;41.00;36.90
21171;DHT22;10743;52.160;20.910;2023-08-06T10:33:44;41.00;36.80
21171;DHT22;10743;52.160;20.910;2023-08-06T10:36:39;41.10;36.40
21171;DHT22;10743;52.160;20.910;2023-08-06T10:39:19;41.10;36.40
21171;DHT22;10743;52.160;20.910;2023-08-06T10:42:27;41.10;36.60
21171;DHT22;10743;52.160;20.910;2023-08-06T10:45:11;41.10;36.40
21171;DHT22;10743;52.160;20.910;2023-08-06T10:48:07;41.00;36.40
21171;DHT22;10743;52.160;20.910;2023-08-06T10:50:42;41.00;36.30
21171;DHT22;10743;52.160;20.910;2023-08-06T10:53:36;41.00;36.50
21171;DHT22;10743;52.160;20.910;2023-08-06T10:56:22;41.00;36.40
21171;DHT22;10743;52.160;20.910;2023-08-06T10:59:10;40.90;36.30
21171;DHT22;10743;52.160;20.910;2023-08-06T11:01:50;40.90;36.70
21171;DHT22;10743;52.160;20.910;2023-08-06T11:04:37;40.90;37.40
21171;DHT22;10743;52.160;20.910;2023-08-06T11:07:13;40.80;37.10
21171;DHT22;10743;52.160;20.910;2023-08-06T11:10:10;40.80;37.90
21171;DHT22;10743;52.160;20.910;2023-08-06T11:12:52;40.80;38.10
21171;DHT22;10743;52.160;20.910;2023-08-06T11:15:39;40.70;38.20
21171;DHT22;10743;52.160;20.910;2023-08-06T11:18:12;40.70;37.80
21171;DHT22;10743;52.160;20.910;2023-08-06T11:21:06;40.80;38.20
21171;DHT22;10743;52.160;20.910;2023-08-06T11:23:46;40.80;37.80
21171;DHT22;10743;52.160;20.910;2023-08-06T11:26:33;40.90;37.20
21171;DHT22;10743;52.160;20.910;2023-08-06T11:29:06;40.90;37.30
21171;DHT22;10743;52.160;20.910;2023-08-06T11:32:06;41.00;37.50
21171;DHT22;10743;52.160;20.910;2023-08-06T11:34:40;41.00;37.40
21171;DHT22;10743;52.160;20.910;2023-08-06T11:37:34;41.20;36.60
21171;DHT22;10743;52.160;20.910;2023-08-06T11:40:09;41.30;35.50
21171;DHT22;10743;52.160;20.910;2023-08-06T11:43:05;41.40;35.30
21171;DHT22;10743;52.160;20.910;2023-08-06T11:46:00;41.50;35.50
21171;DHT22;10743;52.160;20.910;2023-08-06T11:48:56;41.50;35.70
21171;DHT22;10743;52.160;20.910;2023-08-06T11:51:45;41.50;36.20
21171;DHT22;10743;52.160;20.910;2023-08-06T11:54:32;41.60;35.50
21171;DHT22;10743;52.160;20.910;2023-08-06T11:57:19;41.60;35.30
21171;DHT22;10743;52.160;20.910;2023-08-06T12:00:10;41.60;35.40
21171;DHT22;10743;52.160;20.910;2023-08-06T12:03:04;41.70;34.30
21171;DHT22;10743;52.160;20.910;2023-08-06T12:05:45;41.80;35.60
21171;DHT22;10743;52.160;20.910;2023-08-06T12:08:32;41.80;35.60
21171;DHT22;10743;52.160;20.910;2023-08-06T12:11:12;41.80;35.80
21171;DHT22;10743;52.160;20.910;2023-08-06T12:13:59;41.90;34.90
21171;DHT22;10743;52.160;20.910;2023-08-06T12:16:40;41.90;34.40
21171;DHT22;10743;52.160;20.910;2023-08-06T12:19:27;41.90;34.60
21171;DHT22;10743;52.160;20.910;2023-08-06T12:22:07;41.90;34.60
21171;DHT22;10743;52.160;20.910;2023-08-06T12:24:54;41.90;34.10
21171;DHT22;10743;52.160;20.910;2023-08-06T12:27:39;41.90;32.30
21171;DHT22;10743;52.160;20.910;2023-08-06T12:30:27;41.90;32.70
21171;DHT22;10743;52.160;20.910;2023-08-06T12:33:07;41.80;33.10
21171;DHT22;10743;52.160;20.910;2023-08-06T12:36:01;41.80;32.10
21171;DHT22;10743;52.160;20.910;2023-08-06T12:38:55;41.70;32.10
21171;DHT22;10743;52.160;20.910;2023-08-06T12:41:28;41.60;32.00
21171;DHT22;10743;52.160;20.910;2023-08-06T12:44:22;41.50;32.10
21171;DHT22;10743;52.160;20.910;2023-08-06T12:47:17;41.50;32.10
21171;DHT22;10743;52.160;20.910;2023-08-06T12:49:57;41.40;32.30
21171;DHT22;10743;52.160;20.910;2023-08-06T12:52:51;41.30;32.70
21171;DHT22;10743;52.160;20.910;2023-08-06T12:55:24;41.30;32.80
21171;DHT22;10743;52.160;20.910;2023-08-06T12:58:18;41.30;33.20
21171;DHT22;10743;52.160;20.910;2023-08-06T13:00:51;41.20;33.70
21171;DHT22;10743;52.160;20.910;2023-08-06T13:03:45;41.10;33.90
21171;DHT22;10743;52.160;20.910;2023-08-06T13:06:59;41.10;33.90
21171;DHT22;10743;52.160;20.910;2023-08-06T13:09:39;41.10;33.70
21171;DHT22;10743;52.160;20.910;2023-08-06T13:12:26;41.10;34.00
21171;DHT22;10743;52.160;20.910;2023-08-06T13:15:07;41.10;34.20
21171;DHT22;10743;52.160;20.910;2023-08-06T13:17:55;41.10;34.60
21171;DHT22;10743;52.160;20.910;2023-08-06T13:20:38;41.10;34.70
21171;DHT22;10743;52.160;20.910;2023-08-06T13:23:27;41.10;34.60
21171;DHT22;10743;52.160;20.910;2023-08-06T13:26:07;41.00;34.90
21171;DHT22;10743;52.160;20.910;2023-08-06T13:29:02;41.00;34.90
21171;DHT22;10743;52.160;20.910;2023-08-06T13:31:42;40.90;35.30
21171;DHT22;10743;52.160;20.910;2023-08-06T13:34:29;40.90;35.40
21171;DHT22;10743;52.160;20.910;2023-08-06T13:37:09;40.90;35.00
21171;DHT22;10743;52.160;20.910;2023-08-06T13:39:57;40.90;35.20
21171;DHT22;10743;52.160;20.910;2023-08-06T13:42:37;40.90;35.30
21171;DHT22;10743;52.160;20.910;2023-08-06T13:45:31;40.90;35.50
21171;DHT22;10743;52.160;20.910;2023-08-06T13:48:25;40.80;35.60
21171;DHT22;10743;52.160;20.910;2023-08-06T13:51:05;40.80;36.20
21171;DHT22;10743;52.160;20.910;2023-08-06T13:53:52;40.80;36.60
21171;DHT22;10743;52.160;20.910;2023-08-06T13:56:34;40.70;35.70
21171;DHT22;10743;52.160;20.910;2023-08-06T13:59:21;40.70;35.40
21171;DHT22;10743;52.160;20.910;2023-08-06T14:02:04;40.70;36.00
21171;DHT22;10743;52.160;20.910;2023-08-06T14:04:54;40.70;36.00
21171;DHT22;10743;52.160;20.910;2023-08-06T14:07:35;40.60;35.80
21171;DHT22;10743;52.160;20.910;2023-08-06T14:10:22;40.60;36.10
21171;DHT22;10743;52.160;20.910;2023-08-06T14:13:02;40.50;36.20
21171;DHT22;10743;52.160;20.910;2023-08-06T14:15:50;40.50;36.20
21171;DHT22;10743;52.160;20.910;2023-08-06T14:18:30;40.50;36.60
21171;DHT22;10743;52.160;20.910;2023-08-06T14:21:25;40.50;35.90
21171;DHT22;10743;52.160;20.910;2023-08-06T14:23:58;40.50;36.00
21171;DHT22;10743;52.160;20.910;2023-08-06T14:26:52;40.50;36.10
21171;DHT22;10743;52.160;20.910;2023-08-06T14:29:32;40.50;35.30
21171;DHT22;10743;52.160;20.910;2023-08-06T14:32:19;40.50;35.60
21171;DHT22;10743;52.160;20.910;2023-08-06T14:34:59;40.50;35.20
21171;DHT22;10743;52.160;20.910;2023-08-06T14:37:46;40.50;35.20
21171;DHT22;10743;52.160;20.910;2023-08-06T14:40:26;40.50;35.50
21171;DHT22;10743;52.160;20.910;2023-08-06T14:43:17;40.40;36.40
21171;DHT22;10743;52.160;20.910;2023-08-06T14:46:04;40.40;36.90
21171;DHT22;10743;52.160;20.910;2023-08-06T14:48:44;40.30;37.70
21171;DHT22;10743;52.160;20.910;2023-08-06T14:51:31;40.30;36.70
21171;DHT22;10743;52.160;20.910;2023-08-06T14:54:12;40.20;36.70
21171;DHT22;10743;52.160;20.910;2023-08-06T14:56:59;40.10;36.60
21171;DHT22;10743;52.160;20.910;2023-08-06T14:59:32;40.00;36.80
21171;DHT22;10743;52.160;20.910;2023-08-06T15:02:26;39.90;37.20
21171;DHT22;10743;52.160;20.910;2023-08-06T15:05:07;40.00;37.30
21171;DHT22;10743;52.160;20.910;2023-08-06T15:08:01;39.90;37.00
21171;DHT22;10743;52.160;20.910;2023-08-06T15:10:34;39.90;37.50
21171;DHT22;10743;52.160;20.910;2023-08-06T15:13:29;39.90;37.00
21171;DHT22;10743;52.160;20.910;2023-08-06T15:16:03;39.80;37.40
21171;DHT22;10743;52.160;20.910;2023-08-06T15:18:57;39.80;36.80
21171;DHT22;10743;52.160;20.910;2023-08-06T15:21:37;39.70;36.60
21171;DHT22;10743;52.160;20.910;2023-08-06T15:24:24;39.70;36.60
21171;DHT22;10743;52.160;20.910;2023-08-06T15:27:04;39.70;36.40
21171;DHT22;10743;52.160;20.910;2023-08-06T15:29:52;39.60;36.50
21171;DHT22;10743;52.160;20.910;2023-08-06T15:32:32;39.60;36.50
21171;DHT22;10743;52.160;20.910;2023-08-06T15:35:24;39.50;36.10
21171;DHT22;10743;52.160;20.910;2023-08-06T15:38:04;39.50;36.30
21171;DHT22;10743;52.160;20.910;2023-08-06T15:40:51;39.40;36.00
21171;DHT22;10743;52.160;20.910;2023-08-06T15:43:31;39.40;35.50
21171;DHT22;10743;52.160;20.910;2023-08-06T15:46:18;39.40;35.50
21171;DHT22;10743;52.160;20.910;2023-08-06T15:48:58;39.30;35.70
21171;DHT22;10743;52.160;20.910;2023-08-06T15:51:45;39.30;35.80
21171;DHT22;10743;52.160;20.910;2023-08-06T15:54:25;39.20;36.10
21171;DHT22;10743;52.160;20.910;2023-08-06T15:57:21;39.20;36.30
21171;DHT22;10743;52.160;20.910;2023-08-06T16:00:03;39.10;36.30
21171;DHT22;10743;52.160;20.910;2023-08-06T16:02:51;39.00;36.40
21171;DHT22;10743;52.160;20.910;2023-08-06T16:05:25;39.00;36.40
21171;DHT22;10743;52.160;20.910;2023-08-06T16:08:19;39.10;36.70
21171;DHT22;10743;52.160;20.910;2023-08-06T16:10:52;39.00;36.50
21171;DHT22;10743;52.160;20.910;2023-08-06T16:13:46;38.90;36.50
21171;DHT22;10743;52.160;20.910;2023-08-06T16:16:26;39.00;36.50
21171;DHT22;10743;52.160;20.910;2023-08-06T16:19:13;38.90;36.40
21171;DHT22;10743;52.160;20.910;2023-08-06T16:21:53;38.90;36.70
21171;DHT22;10743;52.160;20.910;2023-08-06T16:24:40;38.90;37.00
21171;DHT22;10743;52.160;20.910;2023-08-06T16:27:22;38.80;37.10
21171;DHT22;10743;52.160;20.910;2023-08-06T16:30:10;38.80;36.70
21171;DHT22;10743;52.160;20.910;2023-08-06T16:32:50;38.80;36.70
21171;DHT22;10743;52.160;20.910;2023-08-06T16:35:37;38.70;37.00
21171;DHT22;10743;52.160;20.910;2023-08-06T16:38:18;38.70;37.10
21171;DHT22;10743;52.160;20.910;2023-08-06T16:41:12;38.70;37.50
21171;DHT22;10743;52.160;20.910;2023-08-06T16:43:45;38.70;37.10
21171;DHT22;10743;52.160;20.910;2023-08-06T16:46:39;38.70;37.10
21171;DHT22;10743;52.160;20.910;2023-08-06T16:49:19;38.60;36.90
21171;DHT22;10743;52.160;20.910;2023-08-06T16:52:07;38.60;36.90
21171;DHT22;10743;52.160;20.910;2023-08-06T16:54:48;38.60;36.80
21171;DHT22;10743;52.160;20.910;2023-08-06T16:57:35;38.60;36.80
21171;DHT22;10743;52.160;20.910;2023-08-06T17:00:15;38.50;36.90
21171;DHT22;10743;52.160;20.910;2023-08-06T17:03:02;38.50;36.90
21171;DHT22;10743;52.160;20.910;2023-08-06T17:05:43;38.40;37.10
21171;DHT22;10743;52.160;20.910;2023-08-06T17:08:30;38.40;36.80
21171;DHT22;10743;52.160;20.910;2023-08-06T17:11:16;38.40;36.70
21171;DHT22;10743;52.160;20.910;2023-08-06T17:14:10;38.30;36.70
21171;DHT22;10743;52.160;20.910;2023-08-06T17:16:55;38.30;36.70
21171;DHT22;10743;52.160;20.910;2023-08-06T17:19:56;38.20;36.90